sensor_id;sensor_type;location;lat;lon;timestamp;pressure;altitude;pressure_sealevel;temperature;humidity
51496;BME280;37572;52.094;4.870;2023-04-27T00:00:11;102163.47;;;8.48;54.00
51496;BME280;37572;52.094;4.870;2023-04-27T00:02:37;102166.22;;;8.46;53.62
51496;BME280;37572;52.094;4.870;2023-04-27T00:05:03;102161.84;;;8.45;53.97
51496;BME280;37572;52.094;4.870;2023-04-27T00:07:29;102156.72;;;8.42;53.85
51496;BME280;37572;52.094;4.870;2023-04-27T00:09:54;102161.31;;;8.40;53.81
51496;BME280;37572;52.094;4.870;2023-04-27T00:12:20;102159.59;;;8.39;54.16
51496;BME280;37572;52.094;4.870;2023-04-27T00:14:45;102159.59;;;8.39;54.14
51496;BME280;37572;52.094;4.870;2023-04-27T00:17:10;102158.66;;;8.40;54.57
51496;BME280;37572;52.094;4.870;2023-04-27T00:19:36;102158.66;;;8.40;54.54
51496;BME280;37572;52.094;4.870;2023-04-27T00:22:01;102156.84;;;8.41;54.45
51496;BME280;37572;52.094;4.870;2023-04-27T00:24:27;102158.66;;;8.40;54.60
51496;BME280;37572;52.094;4.870;2023-04-27T00:26:52;102152.50;;;8.40;54.68
51496;BME280;37572;52.094;4.870;2023-04-27T00:29:17;102150.69;;;8.40;54.83
51496;BME280;37572;52.094;4.870;2023-04-27T00:31:42;102157.81;;;8.40;54.99
51496;BME280;37572;52.094;4.870;2023-04-27T00:34:08;102158.66;;;8.40;55.13
51496;BME280;37572;52.094;4.870;2023-04-27T00:36:33;102151.53;;;8.41;54.60
51496;BME280;37572;52.094;4.870;2023-04-27T00:38:59;102153.34;;;8.40;54.90
51496;BME280;37572;52.094;4.870;2023-04-27T00:41:24;102153.44;;;8.39;54.82
51496;BME280;37572;52.094;4.870;2023-04-27T00:43:49;102148.34;;;8.36;54.76
51496;BME280;37572;52.094;4.870;2023-04-27T00:46:15;102147.72;;;8.32;54.66
51496;BME280;37572;52.094;4.870;2023-04-27T00:48:41;102138.19;;;8.29;55.07
51496;BME280;37572;52.094;4.870;2023-04-27T00:51:07;102135.88;;;8.25;54.94
51496;BME280;37572;52.094;4.870;2023-04-27T00:53:32;102135.25;;;8.21;54.84
51496;BME280;37572;52.094;4.870;2023-04-27T00:55:58;102134.56;;;8.18;54.78
51496;BME280;37572;52.094;4.870;2023-04-27T00:58:24;102140.97;;;8.15;55.07
51496;BME280;37572;52.094;4.870;2023-04-27T01:00:50;102143.72;;;8.13;54.86
51496;BME280;37572;52.094;4.870;2023-04-27T01:03:16;102143.72;;;8.13;54.90
51496;BME280;37572;52.094;4.870;2023-04-27T01:05:41;102147.31;;;8.12;55.10
51496;BME280;37572;52.094;4.870;2023-04-27T01:08:06;102149.13;;;8.12;54.74
51496;BME280;37572;52.094;4.870;2023-04-27T01:10:32;102151.91;;;8.10;55.36
51496;BME280;37572;52.094;4.870;2023-04-27T01:12:57;102151.38;;;8.05;55.13
51496;BME280;37572;52.094;4.870;2023-04-27T01:15:22;102156.47;;;7.95;54.65
51496;BME280;37572;52.094;4.870;2023-04-27T01:17:48;102164.31;;;7.84;54.85
51496;BME280;37572;52.094;4.870;2023-04-27T01:20:13;102153.50;;;7.74;54.80
51496;BME280;37572;52.094;4.870;2023-04-27T01:22:39;102153.06;;;7.68;54.53
51496;BME280;37572;52.094;4.870;2023-04-27T01:25:05;102147.09;;;7.64;54.96
51496;BME280;37572;52.094;4.870;2023-04-27T01:27:32;102141.91;;;7.63;54.93
51496;BME280;37572;52.094;4.870;2023-04-27T01:29:57;102142.88;;;7.62;55.05
51496;BME280;37572;52.094;4.870;2023-04-27T01:32:22;102140.31;;;7.60;54.95
51496;BME280;37572;52.094;4.870;2023-04-27T01:34:48;102140.44;;;7.58;55.37
51496;BME280;37572;52.094;4.870;2023-04-27T01:37:13;102135.22;;;7.57;55.26
51496;BME280;37572;52.094;4.870;2023-04-27T01:39:39;102135.44;;;7.54;55.34
51496;BME280;37572;52.094;4.870;2023-04-27T01:42:05;102136.50;;;7.51;55.27
51496;BME280;37572;52.094;4.870;2023-04-27T01:44:30;102133.09;;;7.49;55.17
51496;BME280;37572;52.094;4.870;2023-04-27T01:46:56;102128.13;;;7.45;55.08
51496;BME280;37572;52.094;4.870;2023-04-27T01:49:21;102129.25;;;7.40;54.91
51496;BME280;37572;52.094;4.870;2023-04-27T01:51:46;102125.88;;;7.38;54.84
51496;BME280;37572;52.094;4.870;2023-04-27T01:54:12;102133.09;;;7.36;55.26
51496;BME280;37572;52.094;4.870;2023-04-27T01:56:37;102127.00;;;7.34;54.98
51496;BME280;37572;52.094;4.870;2023-04-27T01:59:02;102134.22;;;7.32;54.94
51496;BME280;37572;52.094;4.870;2023-04-27T02:01:28;102134.31;;;7.31;55.02
51496;BME280;37572;52.094;4.870;2023-04-27T02:03:53;102137.41;;;7.25;55.16
51496;BME280;37572;52.094;4.870;2023-04-27T02:06:18;102132.50;;;7.18;54.94
51496;BME280;37572;52.094;4.870;2023-04-27T02:08:43;102132.06;;;7.12;55.07
51496;BME280;37572;52.094;4.870;2023-04-27T02:11:10;102122.75;;;7.06;54.88
51496;BME280;37572;52.094;4.870;2023-04-27T02:13:36;102127.47;;;7.01;54.89
51496;BME280;37572;52.094;4.870;2023-04-27T02:16:01;102124.16;;;6.97;55.21
51496;BME280;37572;52.094;4.870;2023-04-27T02:18:28;102121.94;;;6.91;55.03
51496;BME280;37572;52.094;4.870;2023-04-27T02:20:53;102116.06;;;6.86;55.06
51496;BME280;37572;52.094;4.870;2023-04-27T02:23:18;102117.22;;;6.82;55.41
51496;BME280;37572;52.094;4.870;2023-04-27T02:25:44;102113.66;;;6.83;55.66
51496;BME280;37572;52.094;4.870;2023-04-27T02:28:13;102109.00;;;6.87;55.89
51496;BME280;37572;52.094;4.870;2023-04-27T02:30:38;102105.09;;;6.92;56.06
51496;BME280;37572;52.094;4.870;2023-04-27T02:33:04;102109.78;;;7.01;56.06
51496;BME280;37572;52.094;4.870;2023-04-27T02:35:29;102102.28;;;7.08;56.29
51496;BME280;37572;52.094;4.870;2023-04-27T02:37:57;102106.31;;;7.14;56.59
51496;BME280;37572;52.094;4.870;2023-04-27T02:40:22;102100.50;;;7.21;56.13
51496;BME280;37572;52.094;4.870;2023-04-27T02:42:47;102098.31;;;7.28;55.97
51496;BME280;37572;52.094;4.870;2023-04-27T02:45:13;102093.88;;;7.41;55.87
51496;BME280;37572;52.094;4.870;2023-04-27T02:47:38;102099.81;;;7.45;55.85
51496;BME280;37572;52.094;4.870;2023-04-27T02:50:03;102108.19;;;7.52;55.35
51496;BME280;37572;52.094;4.870;2023-04-27T02:52:29;102107.78;;;7.58;55.54
51496;BME280;37572;52.094;4.870;2023-04-27T02:54:54;102099.63;;;7.61;55.45
51496;BME280;37572;52.094;4.870;2023-04-27T02:57:20;102103.75;;;7.65;55.04
51496;BME280;37572;52.094;4.870;2023-04-27T02:59:45;102104.38;;;7.69;55.02
51496;BME280;37572;52.094;4.870;2023-04-27T03:02:10;102102.34;;;7.72;54.54
51496;BME280;37572;52.094;4.870;2023-04-27T03:04:36;102101.41;;;7.73;54.46
51496;BME280;37572;52.094;4.870;2023-04-27T03:07:02;102104.91;;;7.74;54.39
51496;BME280;37572;52.094;4.870;2023-04-27T03:09:28;102103.84;;;7.76;54.78
51496;BME280;37572;52.094;4.870;2023-04-27T03:11:53;102103.84;;;7.76;54.54
51496;BME280;37572;52.094;4.870;2023-04-27T03:14:18;102105.78;;;7.74;54.05
51496;BME280;37572;52.094;4.870;2023-04-27T03:16:44;102109.16;;;7.76;54.27
51496;BME280;37572;52.094;4.870;2023-04-27T03:19:09;102109.25;;;7.75;54.31
51496;BME280;37572;52.094;4.870;2023-04-27T03:21:34;102113.59;;;7.76;54.39
51496;BME280;37572;52.094;4.870;2023-04-27T03:24:00;102111.91;;;7.75;53.75
51496;BME280;37572;52.094;4.870;2023-04-27T03:26:25;102109.25;;;7.75;53.63
51496;BME280;37572;52.094;4.870;2023-04-27T03:28:51;102114.47;;;7.76;53.83
51496;BME280;37572;52.094;4.870;2023-04-27T03:31:16;102105.53;;;7.77;53.56
51496;BME280;37572;52.094;4.870;2023-04-27T03:33:41;102115.19;;;7.78;54.00
51496;BME280;37572;52.094;4.870;2023-04-27T03:36:07;102107.13;;;7.80;53.81
51496;BME280;37572;52.094;4.870;2023-04-27T03:38:33;102108.94;;;7.80;53.55
51496;BME280;37572;52.094;4.870;2023-04-27T03:40:59;102109.91;;;7.78;53.47
51496;BME280;37572;52.094;4.870;2023-04-27T03:43:25;102105.44;;;7.79;53.56
51496;BME280;37572;52.094;4.870;2023-04-27T03:45:51;102105.53;;;7.77;53.39
51496;BME280;37572;52.094;4.870;2023-04-27T03:48:16;102109.78;;;7.80;53.18
51496;BME280;37572;52.094;4.870;2023-04-27T03:50:42;102119.56;;;7.80;53.19
51496;BME280;37572;52.094;4.870;2023-04-27T03:53:08;102115.19;;;7.78;53.12
51496;BME280;37572;52.094;4.870;2023-04-27T03:55:36;102117.84;;;7.78;53.39
51496;BME280;37572;52.094;4.870;2023-04-27T03:58:02;102120.72;;;7.75;53.29
51496;BME280;37572;52.094;4.870;2023-04-27T04:00:27;102120.72;;;7.75;53.03
51496;BME280;37572;52.094;4.870;2023-04-27T04:02:52;102123.38;;;7.75;52.92
51496;BME280;37572;52.094;4.870;2023-04-27T04:05:18;102123.38;;;7.75;53.22
51496;BME280;37572;52.094;4.870;2023-04-27T04:07:43;102119.03;;;7.74;53.21
51496;BME280;37572;52.094;4.870;2023-04-27T04:10:09;102132.50;;;7.71;52.74
51496;BME280;37572;52.094;4.870;2023-04-27T04:12:35;102136.81;;;7.72;52.91
51496;BME280;37572;52.094;4.870;2023-04-27T04:15:04;102127.94;;;7.73;53.00
51496;BME280;37572;52.094;4.870;2023-04-27T04:17:29;102131.41;;;7.74;52.95
51496;BME280;37572;52.094;4.870;2023-04-27T04:19:55;102134.19;;;7.72;52.88
51496;BME280;37572;52.094;4.870;2023-04-27T04:22:20;102143.75;;;7.75;52.49
51496;BME280;37572;52.094;4.870;2023-04-27T04:24:45;102141.94;;;7.75;52.70
51496;BME280;37572;52.094;4.870;2023-04-27T04:27:11;102145.22;;;7.79;52.60
51496;BME280;37572;52.094;4.870;2023-04-27T04:29:36;102148.63;;;7.81;52.78
51496;BME280;37572;52.094;4.870;2023-04-27T04:32:03;102143.31;;;7.81;52.38
51496;BME280;37572;52.094;4.870;2023-04-27T04:34:28;102145.22;;;7.79;52.30
51496;BME280;37572;52.094;4.870;2023-04-27T04:36:54;102146.09;;;7.80;52.52
51496;BME280;37572;52.094;4.870;2023-04-27T04:39:21;102149.56;;;7.80;52.29
51496;BME280;37572;52.094;4.870;2023-04-27T04:41:47;102145.22;;;7.79;52.17
51496;BME280;37572;52.094;4.870;2023-04-27T04:44:14;102156.59;;;7.81;52.16
51496;BME280;37572;52.094;4.870;2023-04-27T04:46:40;102156.44;;;7.83;52.09
51496;BME280;37572;52.094;4.870;2023-04-27T04:49:05;102158.16;;;7.84;52.36
51496;BME280;37572;52.094;4.870;2023-04-27T04:51:31;102149.47;;;7.82;52.27
51496;BME280;37572;52.094;4.870;2023-04-27T04:53:56;102156.16;;;7.87;52.37
51496;BME280;37572;52.094;4.870;2023-04-27T04:56:22;102145.22;;;7.92;52.30
51496;BME280;37572;52.094;4.870;2023-04-27T04:58:47;102150.53;;;7.92;52.12
51496;BME280;37572;52.094;4.870;2023-04-27T05:01:12;102153.72;;;7.97;52.00
51496;BME280;37572;52.094;4.870;2023-04-27T05:03:38;102145.44;;;8.02;51.77
51496;BME280;37572;52.094;4.870;2023-04-27T05:06:03;102152.09;;;8.07;51.70
51496;BME280;37572;52.094;4.870;2023-04-27T05:08:28;102154.22;;;8.15;51.39
51496;BME280;37572;52.094;4.870;2023-04-27T05:10:54;102159.44;;;8.29;51.80
51496;BME280;37572;52.094;4.870;2023-04-27T05:13:20;102153.47;;;8.51;51.33
51496;BME280;37572;52.094;4.870;2023-04-27T05:15:45;102168.88;;;8.83;50.84
51496;BME280;37572;52.094;4.870;2023-04-27T05:18:11;102169.34;;;9.01;50.71
51496;BME280;37572;52.094;4.870;2023-04-27T05:20:37;102168.19;;;9.17;50.26
51496;BME280;37572;52.094;4.870;2023-04-27T05:23:03;102168.94;;;9.19;49.89
51496;BME280;37572;52.094;4.870;2023-04-27T05:25:29;102171.47;;;9.20;49.81
51496;BME280;37572;52.094;4.870;2023-04-27T05:27:55;102165.81;;;9.25;49.97
51496;BME280;37572;52.094;4.870;2023-04-27T05:30:20;102165.50;;;9.30;50.19
51496;BME280;37572;52.094;4.870;2023-04-27T05:32:46;102162.59;;;9.33;49.94
51496;BME280;37572;52.094;4.870;2023-04-27T05:35:11;102159.56;;;9.37;50.25
51496;BME280;37572;52.094;4.870;2023-04-27T05:37:36;102159.63;;;9.49;50.35
51496;BME280;37572;52.094;4.870;2023-04-27T05:40:01;102160.03;;;9.67;50.06
51496;BME280;37572;52.094;4.870;2023-04-27T05:42:29;102160.41;;;9.73;49.38
51496;BME280;37572;52.094;4.870;2023-04-27T05:44:54;102163.22;;;9.83;49.32
51496;BME280;37572;52.094;4.870;2023-04-27T05:47:20;102164.19;;;9.93;49.47
51496;BME280;37572;52.094;4.870;2023-04-27T05:49:49;102157.66;;;9.97;49.02
51496;BME280;37572;52.094;4.870;2023-04-27T05:52:15;102155.88;;;9.98;48.19
51496;BME280;37572;52.094;4.870;2023-04-27T05:54:45;102156.69;;;9.98;48.83
51496;BME280;37572;52.094;4.870;2023-04-27T05:57:10;102155.50;;;10.03;48.48
51496;BME280;37572;52.094;4.870;2023-04-27T05:59:36;102170.25;;;10.07;48.48
51496;BME280;37572;52.094;4.870;2023-04-27T06:02:01;102165.31;;;10.13;48.12
51496;BME280;37572;52.094;4.870;2023-04-27T06:04:26;102164.09;;;10.17;47.94
51496;BME280;37572;52.094;4.870;2023-04-27T06:06:53;102163.38;;;10.27;48.21
51496;BME280;37572;52.094;4.870;2023-04-27T06:09:19;102167.63;;;10.41;48.24
51496;BME280;37572;52.094;4.870;2023-04-27T06:11:44;102171.75;;;10.56;47.64
51496;BME280;37572;52.094;4.870;2023-04-27T06:14:11;102168.19;;;10.67;46.94
51496;BME280;37572;52.094;4.870;2023-04-27T06:16:37;102171.94;;;10.76;47.02
51496;BME280;37572;52.094;4.870;2023-04-27T06:19:04;102164.56;;;10.79;46.66
51496;BME280;37572;52.094;4.870;2023-04-27T06:21:31;102175.28;;;11.00;47.20
51496;BME280;37572;52.094;4.870;2023-04-27T06:23:57;102174.63;;;11.19;46.54
51496;BME280;37572;52.094;4.870;2023-04-27T06:26:23;102176.25;;;11.32;45.05
51496;BME280;37572;52.094;4.870;2023-04-27T06:28:48;102172.22;;;11.37;44.98
51496;BME280;37572;52.094;4.870;2023-04-27T06:31:13;102175.88;;;11.57;45.10
51496;BME280;37572;52.094;4.870;2023-04-27T06:33:39;102168.72;;;11.79;44.72
51496;BME280;37572;52.094;4.870;2023-04-27T06:36:05;102169.63;;;12.10;44.58
51496;BME280;37572;52.094;4.870;2023-04-27T06:38:30;102173.16;;;12.51;43.97
51496;BME280;37572;52.094;4.870;2023-04-27T06:40:56;102162.28;;;12.93;43.61
51496;BME280;37572;52.094;4.870;2023-04-27T06:43:21;102164.56;;;13.37;42.44
51496;BME280;37572;52.094;4.870;2023-04-27T06:45:46;102171.00;;;13.74;42.01
51496;BME280;37572;52.094;4.870;2023-04-27T06:48:12;102165.88;;;14.00;40.64
51496;BME280;37572;52.094;4.870;2023-04-27T06:50:37;102159.31;;;14.22;39.63
51496;BME280;37572;52.094;4.870;2023-04-27T06:53:02;102160.78;;;14.44;39.82
51496;BME280;37572;52.094;4.870;2023-04-27T06:55:28;102162.81;;;14.60;39.32
51496;BME280;37572;52.094;4.870;2023-04-27T06:57:53;102163.31;;;14.73;38.93
51496;BME280;37572;52.094;4.870;2023-04-27T07:00:18;102159.88;;;14.81;38.02
51496;BME280;37572;52.094;4.870;2023-04-27T07:02:44;102172.59;;;14.79;38.38
51496;BME280;37572;52.094;4.870;2023-04-27T07:05:09;102169.06;;;14.78;37.90
51496;BME280;37572;52.094;4.870;2023-04-27T07:07:35;102177.19;;;14.87;38.09
51496;BME280;37572;52.094;4.870;2023-04-27T07:10:00;102175.94;;;15.09;38.22
51496;BME280;37572;52.094;4.870;2023-04-27T07:12:25;102179.06;;;15.22;37.64
51496;BME280;37572;52.094;4.870;2023-04-27T07:14:51;102172.84;;;15.04;37.14
51496;BME280;37572;52.094;4.870;2023-04-27T07:17:16;102181.69;;;15.14;36.99
51496;BME280;37572;52.094;4.870;2023-04-27T07:19:41;102176.47;;;15.12;36.60
51496;BME280;37572;52.094;4.870;2023-04-27T07:22:06;102172.09;;;15.29;37.30
51496;BME280;37572;52.094;4.870;2023-04-27T07:24:32;102168.22;;;15.32;36.39
51496;BME280;37572;52.094;4.870;2023-04-27T07:26:57;102172.81;;;15.58;36.01
51496;BME280;37572;52.094;4.870;2023-04-27T07:29:23;102162.81;;;15.68;35.28
51496;BME280;37572;52.094;4.870;2023-04-27T07:31:52;102171.34;;;15.63;35.61
51496;BME280;37572;52.094;4.870;2023-04-27T07:34:17;102173.06;;;15.46;35.93
51496;BME280;37572;52.094;4.870;2023-04-27T07:36:43;102173.00;;;15.20;35.80
51496;BME280;37572;52.094;4.870;2023-04-27T07:39:09;102171.69;;;15.06;36.03
51496;BME280;37572;52.094;4.870;2023-04-27T07:41:35;102172.28;;;15.00;36.47
51496;BME280;37572;52.094;4.870;2023-04-27T07:44:00;102178.97;;;14.96;35.63
51496;BME280;37572;52.094;4.870;2023-04-27T07:46:26;102181.66;;;14.96;36.59
51496;BME280;37572;52.094;4.870;2023-04-27T07:48:51;102174.53;;;15.05;36.77
51496;BME280;37572;52.094;4.870;2023-04-27T07:51:19;102174.44;;;14.96;36.49
51496;BME280;37572;52.094;4.870;2023-04-27T07:53:45;102181.38;;;14.71;36.82
51496;BME280;37572;52.094;4.870;2023-04-27T07:56:10;102177.88;;;14.71;37.55
51496;BME280;37572;52.094;4.870;2023-04-27T07:58:36;102173.19;;;14.73;37.50
51496;BME280;37572;52.094;4.870;2023-04-27T08:01:02;102174.41;;;14.78;37.22
51496;BME280;37572;52.094;4.870;2023-04-27T08:03:27;102170.81;;;14.70;36.79
51496;BME280;37572;52.094;4.870;2023-04-27T08:05:52;102176.84;;;14.44;37.02
51496;BME280;37572;52.094;4.870;2023-04-27T08:08:18;102177.03;;;14.33;37.34
51496;BME280;37572;52.094;4.870;2023-04-27T08:10:43;102175.38;;;14.22;37.47
51496;BME280;37572;52.094;4.870;2023-04-27T08:13:08;102185.97;;;14.14;37.78
51496;BME280;37572;52.094;4.870;2023-04-27T08:15:35;102183.63;;;14.11;37.31
51496;BME280;37572;52.094;4.870;2023-04-27T08:18:01;102179.41;;;13.98;37.45
51496;BME280;37572;52.094;4.870;2023-04-27T08:20:27;102168.56;;;14.00;37.41
51496;BME280;37572;52.094;4.870;2023-04-27T08:22:53;102161.81;;;13.96;37.24
51496;BME280;37572;52.094;4.870;2023-04-27T08:25:18;102167.88;;;13.88;37.27
51496;BME280;37572;52.094;4.870;2023-04-27T08:27:43;102163.81;;;13.84;38.02
51496;BME280;37572;52.094;4.870;2023-04-27T08:30:09;102167.88;;;13.88;38.01
51496;BME280;37572;52.094;4.870;2023-04-27T08:32:34;102170.69;;;13.96;38.21
51496;BME280;37572;52.094;4.870;2023-04-27T08:35:00;102167.84;;;14.07;38.01
51496;BME280;37572;52.094;4.870;2023-04-27T08:37:25;102164.56;;;14.14;38.28
51496;BME280;37572;52.094;4.870;2023-04-27T08:39:51;102173.09;;;14.27;38.05
51496;BME280;37572;52.094;4.870;2023-04-27T08:42:16;102164.34;;;14.35;37.08
51496;BME280;37572;52.094;4.870;2023-04-27T08:44:42;102167.66;;;14.47;37.49
51496;BME280;37572;52.094;4.870;2023-04-27T08:47:08;102167.59;;;14.66;37.81
51496;BME280;37572;52.094;4.870;2023-04-27T08:49:35;102165.69;;;14.76;37.12
51496;BME280;37572;52.094;4.870;2023-04-27T08:52:03;102165.47;;;14.88;37.26
51496;BME280;37572;52.094;4.870;2023-04-27T08:54:28;102166.25;;;14.98;36.33
51496;BME280;37572;52.094;4.870;2023-04-27T08:56:53;102167.47;;;15.04;36.43
51496;BME280;37572;52.094;4.870;2023-04-27T08:59:18;102161.41;;;15.02;35.94
51496;BME280;37572;52.094;4.870;2023-04-27T09:01:47;102170.09;;;15.13;36.54
51496;BME280;37572;52.094;4.870;2023-04-27T09:04:13;102170.63;;;15.17;36.03
51496;BME280;37572;52.094;4.870;2023-04-27T09:06:39;102168.56;;;15.11;35.00
51496;BME280;37572;52.094;4.870;2023-04-27T09:09:04;102162.81;;;15.06;35.12
51496;BME280;37572;52.094;4.870;2023-04-27T09:11:35;102161.41;;;15.02;35.08
51496;BME280;37572;52.094;4.870;2023-04-27T09:14:24;102163.66;;;15.06;35.82
51496;BME280;37572;52.094;4.870;2023-04-27T09:16:55;102160.28;;;15.22;36.16
51496;BME280;37572;52.094;4.870;2023-04-27T09:19:26;102161.94;;;15.41;35.94
51496;BME280;37572;52.094;4.870;2023-04-27T09:22:07;102157.25;;;15.43;34.98
51496;BME280;37572;52.094;4.870;2023-04-27T09:24:32;102158.28;;;15.42;35.32
51496;BME280;37572;52.094;4.870;2023-04-27T09:26:58;102153.28;;;15.47;35.41
51496;BME280;37572;52.094;4.870;2023-04-27T09:29:37;102153.88;;;15.59;35.35
51496;BME280;37572;52.094;4.870;2023-04-27T09:32:14;102159.09;;;15.61;34.57
51496;BME280;37572;52.094;4.870;2023-04-27T09:34:39;102162.13;;;15.66;35.25
51496;BME280;37572;52.094;4.870;2023-04-27T09:37:05;102150.16;;;15.60;34.51
51496;BME280;37572;52.094;4.870;2023-04-27T09:39:31;102146.81;;;15.58;34.96
51496;BME280;37572;52.094;4.870;2023-04-27T09:41:57;102143.97;;;15.60;34.67
51496;BME280;37572;52.094;4.870;2023-04-27T09:44:22;102149.69;;;15.65;34.18
51496;BME280;37572;52.094;4.870;2023-04-27T09:46:48;102149.09;;;15.71;34.02
51496;BME280;37572;52.094;4.870;2023-04-27T09:49:15;102151.91;;;15.87;34.54
51496;BME280;37572;52.094;4.870;2023-04-27T09:51:41;102159.72;;;16.07;34.46
51496;BME280;37572;52.094;4.870;2023-04-27T09:54:08;102157.91;;;16.07;33.71
51496;BME280;37572;52.094;4.870;2023-04-27T09:59:34;102148.88;;;16.68;34.38
51496;BME280;37572;52.094;4.870;2023-04-27T10:02:01;102145.97;;;16.95;33.70
51496;BME280;37572;52.094;4.870;2023-04-27T10:07:31;102142.25;;;17.05;31.87
51496;BME280;37572;52.094;4.870;2023-04-27T10:10:01;102144.94;;;17.05;32.72
51496;BME280;37572;52.094;4.870;2023-04-27T10:12:27;102143.94;;;16.97;32.56
51496;BME280;37572;52.094;4.870;2023-04-27T10:14:58;102146.97;;;17.02;32.45
51496;BME280;37572;52.094;4.870;2023-04-27T10:19:55;102140.59;;;16.95;32.72
51496;BME280;37572;52.094;4.870;2023-04-27T10:22:21;102141.75;;;16.93;32.16
51496;BME280;37572;52.094;4.870;2023-04-27T10:24:49;102145.97;;;16.95;31.85
51496;BME280;37572;52.094;4.870;2023-04-27T10:27:16;102131.66;;;16.95;32.01
51496;BME280;37572;52.094;4.870;2023-04-27T10:29:49;102139.56;;;16.96;32.07
51496;BME280;37572;52.094;4.870;2023-04-27T10:32:25;102140.22;;;16.90;32.43
51496;BME280;37572;52.094;4.870;2023-04-27T10:35:04;102136.34;;;16.85;32.39
51496;BME280;37572;52.094;4.870;2023-04-27T10:37:41;102144.91;;;16.88;32.36
51496;BME280;37572;52.094;4.870;2023-04-27T10:40:09;102142.41;;;16.95;32.39
51496;BME280;37572;52.094;4.870;2023-04-27T10:42:35;102137.88;;;17.12;32.66
51496;BME280;37572;52.094;4.870;2023-04-27T10:45:01;102133.69;;;17.17;30.93
51496;BME280;37572;52.094;4.870;2023-04-27T10:47:39;102129.81;;;17.20;31.21
51496;BME280;37572;52.094;4.870;2023-04-27T10:50:07;102134.19;;;17.29;31.64
51496;BME280;37572;52.094;4.870;2023-04-27T10:52:32;102133.16;;;17.38;32.09
51496;BME280;37572;52.094;4.870;2023-04-27T10:55:11;102136.03;;;17.45;30.95
51496;BME280;37572;52.094;4.870;2023-04-27T10:57:44;102128.97;;;17.44;31.11
51496;BME280;37572;52.094;4.870;2023-04-27T11:00:11;102122.06;;;17.33;29.92
51496;BME280;37572;52.094;4.870;2023-04-27T11:02:38;102115.69;;;17.26;30.53
51496;BME280;37572;52.094;4.870;2023-04-27T11:05:16;102107.59;;;17.34;31.46
51496;BME280;37572;52.094;4.870;2023-04-27T11:07:41;102118.53;;;17.57;31.77
51496;BME280;37572;52.094;4.870;2023-04-27T11:10:07;102107.22;;;17.70;30.18
51496;BME280;37572;52.094;4.870;2023-04-27T11:12:33;102099.13;;;17.79;30.73
51496;BME280;37572;52.094;4.870;2023-04-27T11:14:58;102099.63;;;17.74;30.10
51496;BME280;37572;52.094;4.870;2023-04-27T11:17:28;102097.94;;;17.73;29.82
51496;BME280;37572;52.094;4.870;2023-04-27T11:19:53;102095.41;;;17.80;29.97
51496;BME280;37572;52.094;4.870;2023-04-27T11:22:18;102088.16;;;17.88;30.21
51496;BME280;37572;52.094;4.870;2023-04-27T11:24:48;102089.34;;;17.94;30.40
51496;BME280;37572;52.094;4.870;2023-04-27T11:27:14;102085.09;;;18.00;30.35
51496;BME280;37572;52.094;4.870;2023-04-27T11:29:39;102086.75;;;18.09;30.32
51496;BME280;37572;52.094;4.870;2023-04-27T11:32:05;102087.19;;;18.21;30.37
51496;BME280;37572;52.094;4.870;2023-04-27T11:34:31;102079.72;;;18.31;30.27
51496;BME280;37572;52.094;4.870;2023-04-27T11:37:05;102080.13;;;18.20;29.30
51496;BME280;37572;52.094;4.870;2023-04-27T11:39:38;102078.50;;;18.10;29.11
51496;BME280;37572;52.094;4.870;2023-04-27T11:44:57;102074.44;;;18.06;29.54
51496;BME280;37572;52.094;4.870;2023-04-27T11:47:26;102078.84;;;18.07;29.57
51496;BME280;37572;52.094;4.870;2023-04-27T11:49:54;102074.78;;;18.03;29.58
51496;BME280;37572;52.094;4.870;2023-04-27T11:52:34;102070.13;;;17.97;29.11
51496;BME280;37572;52.094;4.870;2023-04-27T11:55:00;102080.25;;;17.87;28.60
51496;BME280;37572;52.094;4.870;2023-04-27T11:57:28;102073.50;;;17.83;28.86
51496;BME280;37572;52.094;4.870;2023-04-27T11:59:57;102077.91;;;17.92;29.22
51496;BME280;37572;52.094;4.870;2023-04-27T12:02:24;102074.59;;;18.13;29.72
51496;BME280;37572;52.094;4.870;2023-04-27T12:04:51;102063.03;;;18.36;29.49
51496;BME280;37572;52.094;4.870;2023-04-27T12:07:17;102076.19;;;18.62;29.70
51496;BME280;37572;52.094;4.870;2023-04-27T12:09:42;102067.59;;;18.81;27.49
51496;BME280;37572;52.094;4.870;2023-04-27T12:12:09;102066.84;;;18.96;27.86
51496;BME280;37572;52.094;4.870;2023-04-27T12:14:34;102065.78;;;19.20;28.41
51496;BME280;37572;52.094;4.870;2023-04-27T12:17:00;102069.66;;;19.55;28.95
51496;BME280;37572;52.094;4.870;2023-04-27T12:19:26;102068.56;;;19.94;28.19
51496;BME280;37572;52.094;4.870;2023-04-27T12:21:52;102070.84;;;20.27;27.71
51496;BME280;37572;52.094;4.870;2023-04-27T12:24:18;102065.00;;;20.45;27.29
51496;BME280;37572;52.094;4.870;2023-04-27T12:26:44;102057.97;;;20.66;27.54
51496;BME280;37572;52.094;4.870;2023-04-27T12:29:10;102049.59;;;20.82;27.49
51496;BME280;37572;52.094;4.870;2023-04-27T12:31:35;102052.03;;;20.99;27.11
51496;BME280;37572;52.094;4.870;2023-04-27T12:34:01;102056.91;;;21.10;26.76
51496;BME280;37572;52.094;4.870;2023-04-27T12:36:26;102059.38;;;21.05;25.82
51496;BME280;37572;52.094;4.870;2023-04-27T12:38:56;102045.69;;;20.92;25.92
51496;BME280;37572;52.094;4.870;2023-04-27T12:41:22;102041.72;;;20.87;26.10
51496;BME280;37572;52.094;4.870;2023-04-27T12:43:48;102050.47;;;20.89;26.60
51496;BME280;37572;52.094;4.870;2023-04-27T12:46:13;102039.13;;;21.01;26.66
51496;BME280;37572;52.094;4.870;2023-04-27T12:48:39;102031.44;;;21.04;26.24
51496;BME280;37572;52.094;4.870;2023-04-27T12:51:05;102034.56;;;21.08;27.01
51496;BME280;37572;52.094;4.870;2023-04-27T12:53:31;102039.22;;;21.14;26.18
51496;BME280;37572;52.094;4.870;2023-04-27T12:55:56;102037.59;;;21.20;26.11
51496;BME280;37572;52.094;4.870;2023-04-27T12:58:24;102035.38;;;21.30;25.84
51496;BME280;37572;52.094;4.870;2023-04-27T13:00:50;102039.34;;;21.34;25.14